This demonstration page uses our WeatherBlox Daily Observations layout. Learn more.

36.17497, -115.13722

Hourly Observations for February 9, 2016

Temp ( °F °C ) Dew Point ( °F °C ) Humidity (%) Winds ( mph kmh ) Pressure ( in mb ) Visibility ( mi km ) Precip ( " mm )
12:53 am 00:53 Clear 54 12.2 26 -3.3 34 34 NNW 12 19 30.39 1029 10 16.0934 0 0
1:53 am 01:53 Clear 55 12.8 26 -3.3 33 33 NW 13 20 30.39 1029 10 16.0934 0 0
2:53 am 02:53 Clear 56 13.3 25 -3.9 30 30 N 14 22 30.39 1029 10 16.0934 0 0
3:53 am 03:53 Clear 51 10.6 26 -3.3 38 38 NNE 5 7 30.39 1029 10 16.0934 0 0
4:53 am 04:53 Clear 50 10 26 -3.3 39 39 Calm 30.4 1029 10 16.0934 0 0
5:53 am 05:53 Clear 49 9.4 26 -3.3 41 41 WNW 10 17 30.41 1030 10 16.0934 0 0
6:53 am 06:53 Sunny 48 8.9 26 -3.3 42 42 SW 5 7 30.42 1030 10 16.0934 0 0
7:53 am 07:53 Sunny 52 11.1 27 -2.8 38 38 W 3 6 30.43 1031 10 16.0934 0 0
8:53 am 08:53 Sunny 57 13.9 27 -2.8 32 32 NNE 3 6 30.44 1031 10 16.0934 0 0
9:53 am 09:53 Sunny 58 14.4 27 -2.8 31 31 WSW 3 6 30.44 1031 10 16.0934 0 0
10:53 am 10:53 Sunny 63 17.2 27 -2.8 26 26 SE 6 9 30.42 1030 10 16.0934 0 0
11:53 am 11:53 Sunny 66 18.9 26 -3.3 22 22 VRB 3 6 30.38 1029 10 16.0934 0 0
12:53 pm 12:53 Sunny 68 20 25 -3.9 20 20 S 5 7 30.34 1027 10 16.0934 0 0
1:53 pm 13:53 Sunny 69 20.6 25 -3.9 19 19 E 3 6 30.3 1026 10 16.0934 0 0
2:53 pm 14:53 Sunny 71 21.7 27 -2.8 19 19 SE 5 7 30.29 1026 10 16.0934 0 0
3:53 pm 15:53 Sunny 71 21.7 27 -2.8 19 19 Calm 30.28 1026 10 16.0934 0 0
4:53 pm 16:53 Sunny 71 21.7 26 -3.3 19 19 Calm 30.28 1025 10 16.0934 0 0
5:53 pm 17:53 Clear 66 18.9 27 -2.8 23 23 Calm 30.29 1026 10 16.0934 0 0
6:53 pm 18:53 Clear 62 16.7 29 -1.7 29 29 WNW 5 7 30.3 1026 10 16.0934 0 0
7:53 pm 19:53 Clear 57 13.9 29 -1.7 34 34 NW 7 11 30.3 1026 10 16.0934 0 0
8:53 pm 20:53 Clear 55 12.8 29 -1.7 37 37 NNW 6 9 30.31 1027 10 16.0934 0 0
9:53 pm 21:53 Clear 53 11.7 29 -1.7 40 40 NW 7 11 30.32 1027 10 16.0934 0 0
10:53 pm 22:53 Clear 53 11.7 28 -2.2 38 38 NW 7 11 30.32 1027 10 16.0934 0 0
11:53 pm 23:53 Clear 56 13.3 24 -4.4 29 29 Calm 30.3 1026 10 16.0934 0 0

Powered by AerisWeather